Time;durP1;ratioP1;P1;durP2;ratioP2;P2;SDS_P1;SDS_P2;PMS_P1;PMS_P2;Temp;Humidity;BMP_temperature;BMP_pressure;BME280_temperature;BME280_humidity;BME280_pressure;Samples;Min_cycle;Max_cycle;Signal;HPM_P1;HPM_P2
2021/08/08 12:42:20;;;;;;;;;;;;;;;22.04;61.95;100338.13;2173725;40;113715;-53
2021/08/08 12:43:56;;;;;;;;;;;;;;;22.07;61.79;100337.50;2173755;40;113874;-53
2021/08/08 12:45:34;;;;;;;;;;;;;;;22.11;61.87;100332.84;2176794;40;113649;-53
2021/08/08 12:47:05;;;;;;;;;;;;;;;22.15;61.68;100333.81;2173914;40;114903;-53
2021/08/08 12:48:42;;;;;;;;;;;;;;;22.20;61.67;100334.81;2174162;40;114832;-53
2021/08/08 12:50:16;;;;;;;;;;;;;;;22.24;61.44;100361.94;2173572;40;113747;-54
2021/08/08 12:51:50;;;;;;;;;;;;;;;22.29;61.19;100347.69;2175370;40;115210;-54
2021/08/08 12:53:21;;;;;;;;;;;;;;;22.32;61.04;100337.75;2173454;40;114023;-53
2021/08/08 12:54:53;;;;;;;;;;;;;;;22.35;61.04;100337.09;2173419;40;114754;-53
2021/08/08 12:56:28;;;;;;;;;;;;;;;22.39;60.84;100343.69;2174353;40;115108;-53
2021/08/08 12:58:00;;;;;;;;;;;;;;;22.41;60.80;100352.63;2173929;40;114873;-53
2021/08/08 12:59:31;;;;;;;;;;;;;;;22.45;60.71;100345.16;2173783;40;114624;-52
2021/08/08 13:01:03;;;;;;;;;;;;;;;22.47;60.52;100342.84;2174246;40;114476;-53
2021/08/08 13:02:35;;;;;;;;;;;;;;;22.50;60.30;100348.63;2174101;40;115296;-53
2021/08/08 13:04:09;;;;;;;;;;;;;;;22.53;60.22;100358.41;2173896;40;115486;-53
2021/08/08 13:05:40;;;;;;;;;;;;;;;22.56;60.20;100360.53;2173896;40;115010;-53
2021/08/08 13:07:12;;;;;;;;;;;;;;;22.58;59.99;100361.84;2181916;40;114751;-53
2021/08/08 13:08:44;;;;;;;;;;;;;;;22.61;59.96;100361.19;2171970;40;115433;-53
2021/08/08 13:10:16;;;;;;;;;;;;;;;22.63;59.66;100367.28;2179285;40;115423;-53
2021/08/08 13:11:48;;;;;;;;;;;;;;;22.66;59.46;100364.97;2175502;40;115492;-53
2021/08/08 13:13:20;;;;;;;;;;;;;;;22.69;59.39;100369.91;2171059;40;115604;-53
2021/08/08 13:14:51;;;;;;;;;;;;;;;22.71;59.13;100368.47;2178569;40;115577;-53
2021/08/08 13:16:23;;;;;;;;;;;;;;;22.73;59.21;100366.13;2175711;40;115490;-53
2021/08/08 13:17:55;;;;;;;;;;;;;;;22.75;58.92;100372.25;2173218;40;115660;-53
2021/08/08 13:19:27;;;;;;;;;;;;;;;22.77;58.66;100372.72;2173364;40;114596;-53
2021/08/08 13:21:02;;;;;;;;;;;;;;;22.78;58.93;100370.75;2184740;39;116292;-53
2021/08/08 13:22:49;;;;;;;;;;;;;;;22.80;58.95;100368.44;2176516;39;114552;-54
2021/08/08 13:25:01;;;;;;;;;;;;;;;22.83;58.80;100387.47;2183077;39;114632;-52
2021/08/08 13:27:08;;;;;;;;;;;;;;;22.85;58.50;100376.69;2184846;39;114426;-53
2021/08/08 13:29:20;;;;;;;;;;;;;;;22.89;58.65;100380.47;2171614;40;114392;-53
2021/08/08 13:31:20;;;;;;;;;;;;;;;22.91;58.61;100387.41;2170609;40;114676;-53
2021/08/08 13:32:55;;;;;;;;;;;;;;;22.93;58.61;100382.28;2174113;40;113822;-53
2021/08/08 13:34:38;;;;;;;;;;;;;;;22.94;58.57;100383.13;2173246;40;114073;-53
2021/08/08 13:36:42;;;;;;;;;;;;;;;22.96;58.48;100395.69;2169988;40;114194;-53
2021/08/08 13:38:58;;;;;;;;;;;;;;;22.98;58.33;100398.19;2171606;40;113771;-53
2021/08/08 13:41:08;;;;;;;;;;;;;;;23.00;58.77;100384.56;2170011;40;113985;-53
2021/08/08 13:43:09;;;;;;;;;;;;;;;23.01;58.97;100397.50;2177274;40;113781;-53
2021/08/08 13:45:16;;;;;;;;;;;;;;;23.02;58.73;100401.97;2184040;39;114045;-52
2021/08/08 13:47:05;;;;;;;;;;;;;;;23.03;58.60;100400.81;2172626;40;114228;-52
2021/08/08 13:48:46;;;;;;;;;;;;;;;23.05;58.27;100401.28;2173676;40;113749;-53
2021/08/08 13:50:32;;;;;;;;;;;;;;;23.05;58.17;100404.09;2173212;40;113779;-53
2021/08/08 13:52:30;;;;;;;;;;;;;;;23.07;58.18;100415.88;2171725;40;113826;-53
2021/08/08 13:54:20;;;;;;;;;;;;;;;23.09;57.96;100407.06;2171802;40;114007;-53
2021/08/08 13:56:21;;;;;;;;;;;;;;;23.09;57.50;100415.50;2171116;40;114036;-53
2021/08/08 13:58:18;;;;;;;;;;;;;;;23.09;57.44;100407.88;2173540;40;113966;-53
2021/08/08 14:00:05;;;;;;;;;;;;;;;23.10;57.51;100411.53;2176355;40;113913;-53
2021/08/08 14:01:46;;;;;;;;;;;;;;;23.12;57.50;100426.13;2175083;40;113924;-53
2021/08/08 14:03:19;;;;;;;;;;;;;;;23.12;57.29;100424.13;2185181;39;114853;-53
2021/08/08 14:04:51;;;;;;;;;;;;;;;23.13;57.07;100428.59;2177456;39;115720;-53
2021/08/08 14:06:25;;;;;;;;;;;;;;;23.13;57.01;100431.41;2172407;40;114833;-53
2021/08/08 14:07:57;;;;;;;;;;;;;;;23.14;56.54;100416.16;2173909;40;115130;-53
2021/08/08 14:09:29;;;;;;;;;;;;;;;23.14;56.48;100413.34;2172082;40;114721;-53
2021/08/08 14:11:02;;;;;;;;;;;;;;;23.14;57.04;100412.50;2171289;40;114761;-53
2021/08/08 14:12:34;;;;;;;;;;;;;;;23.16;56.85;100411.00;2176690;39;114693;-53
2021/08/08 14:14:05;;;;;;;;;;;;;;;23.15;56.10;100420.63;2171308;40;115082;-53
2021/08/08 14:15:37;;;;;;;;;;;;;;;23.12;55.68;100421.31;2173060;40;115357;-53
2021/08/08 14:17:10;;;;;;;;;;;;;;;23.12;55.63;100437.41;2173254;40;114794;-53
2021/08/08 14:18:41;;;;;;;;;;;;;;;23.09;55.09;100438.88;2169840;40;115405;-53
2021/08/08 14:20:14;;;;;;;;;;;;;;;23.06;54.82;100439.56;2173523;40;115312;-53
2021/08/08 14:21:48;;;;;;;;;;;;;;;23.05;54.67;100449.19;2173855;40;116290;-53
2021/08/08 14:23:20;;;;;;;;;;;;;;;23.03;54.90;100445.88;2179321;40;115582;-53
2021/08/08 14:24:51;;;;;;;;;;;;;;;23.03;54.90;100443.06;2174433;40;115465;-53
2021/08/08 14:26:23;;;;;;;;;;;;;;;23.01;54.96;100448.22;2172489;40;114572;-53
2021/08/08 14:27:57;;;;;;;;;;;;;;;23.00;54.94;100441.75;2174627;40;115443;-53
2021/08/08 14:29:28;;;;;;;;;;;;;;;23.00;55.00;100446.53;2173487;40;115628;-53
2021/08/08 14:31:00;;;;;;;;;;;;;;;22.98;55.08;100448.88;2173547;40;114845;-52
2021/08/08 14:32:33;;;;;;;;;;;;;;;22.97;55.06;100455.69;2173863;40;116393;-53
2021/08/08 14:34:05;;;;;;;;;;;;;;;22.96;54.68;100443.59;2174426;40;114532;-53
2021/08/08 14:35:37;;;;;;;;;;;;;;;22.94;54.49;100445.91;2174260;40;115692;-54
2021/08/08 14:37:08;;;;;;;;;;;;;;;22.94;54.72;100453.56;2172803;40;115639;-54
2021/08/08 14:38:40;;;;;;;;;;;;;;;22.93;54.87;100454.72;2174168;40;115727;-53
2021/08/08 14:40:13;;;;;;;;;;;;;;;22.92;55.04;100453.03;2173430;40;115674;-53
2021/08/08 14:41:45;;;;;;;;;;;;;;;22.91;55.02;100454.22;2173958;40;115544;-52
2021/08/08 14:43:17;;;;;;;;;;;;;;;22.89;55.23;100457.38;2176402;40;115538;-53
2021/08/08 14:44:49;;;;;;;;;;;;;;;22.89;55.30;100465.00;2172942;40;113871;-53
2021/08/08 14:46:20;;;;;;;;;;;;;;;22.88;55.24;100466.16;2169956;40;113838;-54
2021/08/08 14:47:52;;;;;;;;;;;;;;;22.87;55.51;100467.31;2173143;40;113772;-53
2021/08/08 14:49:25;;;;;;;;;;;;;;;22.85;55.44;100464.03;2168870;40;113783;-53
2021/08/08 14:50:57;;;;;;;;;;;;;;;22.83;55.52;100464.34;2172209;40;114179;-53
2021/08/08 14:52:31;;;;;;;;;;;;;;;22.83;55.74;100471.97;2171357;40;114022;-54
2021/08/08 14:54:09;;;;;;;;;;;;;;;22.81;55.54;100461.03;2169632;40;113701;-53
2021/08/08 14:55:45;;;;;;;;;;;;;;;22.82;55.71;100478.75;2180246;39;113782;-54
2021/08/08 14:57:19;;;;;;;;;;;;;;;22.80;55.56;100476.28;2172029;39;114039;-53
2021/08/08 14:58:50;;;;;;;;;;;;;;;22.79;55.74;100471.81;2169837;40;113712;-53
2021/08/08 15:00:23;;;;;;;;;;;;;;;22.77;55.76;100484.56;2175579;40;113838;-53
2021/08/08 15:01:56;;;;;;;;;;;;;;;22.78;55.84;100477.78;2173425;40;113740;-53
2021/08/08 15:03:33;;;;;;;;;;;;;;;22.76;55.73;100480.91;2175690;40;113800;-53
2021/08/08 15:05:07;;;;;;;;;;;;;;;22.77;55.66;100484.56;2172479;40;114009;-53
2021/08/08 15:06:43;;;;;;;;;;;;;;;22.76;55.85;100485.75;2168853;40;115316;-53
2021/08/08 15:08:15;;;;;;;;;;;;;;;22.74;56.07;100488.06;2169454;40;114837;-53
2021/08/08 15:09:49;;;;;;;;;;;;;;;22.74;55.91;100480.44;2169186;40;113984;-53
2021/08/08 15:11:27;;;;;;;;;;;;;;;22.74;55.75;100483.25;2170132;40;115140;-53
2021/08/08 15:13:04;;;;;;;;;;;;;;;22.72;55.76;100491.19;2173823;40;116061;-53
2021/08/08 15:14:36;;;;;;;;;;;;;;;22.71;55.66;100475.50;2173976;40;113987;-53
2021/08/08 15:16:11;;;;;;;;;;;;;;;22.70;55.68;100487.91;2171057;40;115056;-54
2021/08/08 15:17:59;;;;;;;;;;;;;;;22.69;55.76;100500.28;2174551;40;114071;-53
2021/08/08 15:19:34;;;;;;;;;;;;;;;22.67;55.96;100494.16;2170921;40;115534;-52
2021/08/08 15:21:07;;;;;;;;;;;;;;;22.67;55.91;100499.78;2169811;40;115375;-55
2021/08/08 15:22:42;;;;;;;;;;;;;;;22.67;55.91;100501.81;2169610;40;114810;-53
2021/08/08 15:24:24;;;;;;;;;;;;;;;22.64;55.95;100483.56;2169433;40;113930;-53
2021/08/08 15:26:23;;;;;;;;;;;;;;;22.65;55.93;100495.66;2169805;40;115516;-53
2021/08/08 15:28:08;;;;;;;;;;;;;;;22.64;56.02;100506.09;2185279;39;113727;-53
2021/08/08 15:29:40;;;;;;;;;;;;;;;22.63;55.87;100505.28;2176647;39;115441;-54
2021/08/08 15:31:12;;;;;;;;;;;;;;;22.64;56.09;100523.00;2170807;40;115536;-54
2021/08/08 15:32:44;;;;;;;;;;;;;;;22.63;56.28;100510.06;2170290;40;115486;-53
2021/08/08 15:34:17;;;;;;;;;;;;;;;22.63;56.16;100508.09;2170092;40;115489;-53
2021/08/08 15:35:49;;;;;;;;;;;;;;;22.63;56.16;100533.44;2169140;40;115532;-53
2021/08/08 15:37:21;;;;;;;;;;;;;;;22.64;56.17;100531.44;2168345;40;115005;-52
2021/08/08 15:38:53;;;;;;;;;;;;;;;22.62;56.27;100525.34;2168740;40;115532;-53
2021/08/08 15:40:25;;;;;;;;;;;;;;;22.60;56.32;100525.66;2181203;39;115562;-53
2021/08/08 15:42:18;;;;;;;;;;;;;;;22.58;56.41;100532.75;2169173;39;114356;-53
2021/08/08 15:43:50;;;;;;;;;;;;;;;22.58;56.17;100536.41;2174177;40;115571;-52
2021/08/08 15:45:22;;;;;;;;;;;;;;;22.56;56.35;100552.81;2174353;40;115599;-53
2021/08/08 15:46:54;;;;;;;;;;;;;;;22.55;56.24;100559.63;2174309;40;115638;-53
2021/08/08 15:48:28;;;;;;;;;;;;;;;22.53;56.07;100561.91;2173987;40;114641;-53
2021/08/08 15:50:01;;;;;;;;;;;;;;;22.51;56.32;100563.44;2173735;40;114674;-53
2021/08/08 15:51:33;;;;;;;;;;;;;;;22.52;56.20;100559.47;2169650;40;115499;-53
2021/08/08 15:53:05;;;;;;;;;;;;;;;22.49;56.27;100560.09;2169485;40;114017;-53
2021/08/08 15:54:37;;;;;;;;;;;;;;;22.47;56.53;100579.31;2173379;40;113843;-53
2021/08/08 15:56:09;;;;;;;;;;;;;;;22.48;56.48;100564.94;2173465;40;114011;-52
2021/08/08 15:57:42;;;;;;;;;;;;;;;22.49;56.24;100562.91;2184664;39;113937;-53
2021/08/08 15:59:14;;;;;;;;;;;;;;;22.48;56.40;100562.13;2177842;39;114047;-53
2021/08/08 16:00:46;;;;;;;;;;;;;;;22.45;56.61;100548.69;2179234;40;114167;-54
2021/08/08 16:02:17;;;;;;;;;;;;;;;22.44;56.82;100547.00;2175448;40;114115;-53
2021/08/08 16:03:49;;;;;;;;;;;;;;;22.43;56.82;100542.56;2174071;40;113955;-53
2021/08/08 16:05:25;;;;;;;;;;;;;;;22.42;56.98;100540.91;2172634;40;113984;-53
2021/08/08 16:07:01;;;;;;;;;;;;;;;22.43;57.02;100544.56;2173864;40;113624;-53
2021/08/08 16:08:35;;;;;;;;;;;;;;;22.42;57.10;100540.91;2173988;40;113902;-54
2021/08/08 16:10:14;;;;;;;;;;;;;;;22.42;57.14;100551.34;2173011;40;113988;-53
2021/08/08 16:11:46;;;;;;;;;;;;;;;22.42;57.14;100554.97;2185433;39;114056;-53
2021/08/08 16:13:19;;;;;;;;;;;;;;;22.43;57.37;100555.81;2180042;39;113904;-53
2021/08/08 16:14:52;;;;;;;;;;;;;;;22.42;57.38;100556.97;2174004;40;114008;-53
2021/08/08 16:16:24;;;;;;;;;;;;;;;22.42;57.30;100548.53;2174121;40;114960;-53
2021/08/08 16:17:56;;;;;;;;;;;;;;;22.39;57.68;100555.66;2173985;40;115290;-53
2021/08/08 16:19:28;;;;;;;;;;;;;;;22.40;57.67;100548.84;2173137;40;115181;-53
2021/08/08 16:21:01;;;;;;;;;;;;;;;22.42;57.55;100554.16;2183390;39;114030;-53
2021/08/08 16:22:33;;;;;;;;;;;;;;;22.40;57.57;100557.28;2177022;39;114763;-53
2021/08/08 16:24:05;;;;;;;;;;;;;;;22.41;57.55;100553.31;2173371;40;114762;-53
2021/08/08 16:25:37;;;;;;;;;;;;;;;22.41;57.66;100549.66;2173686;40;114751;-53
2021/08/08 16:27:11;;;;;;;;;;;;;;;22.41;57.52;100560.94;2172915;40;115022;-53
2021/08/08 16:28:42;;;;;;;;;;;;;;;22.42;57.58;100559.78;2174313;40;115036;-53
2021/08/08 16:30:19;;;;;;;;;;;;;;;22.39;57.69;100575.34;2172809;40;115427;-53
2021/08/08 16:31:51;;;;;;;;;;;;;;;22.38;57.79;100556.81;2173749;40;114817;-53
2021/08/08 16:33:25;;;;;;;;;;;;;;;22.38;57.70;100592.56;2173338;40;115090;-53
2021/08/08 16:34:56;;;;;;;;;;;;;;;22.39;57.51;100568.91;2177044;40;114812;-53
2021/08/08 16:36:28;;;;;;;;;;;;;;;22.38;57.69;100570.03;2173865;40;115848;-53
2021/08/08 16:38:00;;;;;;;;;;;;;;;22.36;57.67;100570.38;2172647;40;115974;-53
2021/08/08 16:39:46;;;;;;;;;;;;;;;22.35;57.66;100568.69;2173895;40;115856;-52
2021/08/08 16:41:54;;;;;;;;;;;;;;;22.33;57.79;100565.41;2173015;40;113996;-53
2021/08/08 16:43:34;;;;;;;;;;;;;;;22.31;57.65;100567.72;2173914;40;115511;-53
2021/08/08 16:45:08;;;;;;;;;;;;;;;22.32;57.65;100566.56;2178492;39;114649;-54
2021/08/08 16:46:41;;;;;;;;;;;;;;;22.32;57.66;100565.72;2166890;40;115242;-53
2021/08/08 16:48:13;;;;;;;;;;;;;;;22.32;57.79;100568.53;2175554;40;115620;-53
2021/08/08 16:49:45;;;;;;;;;;;;;;;22.32;57.79;100576.97;2175993;40;116510;-53
2021/08/08 16:51:17;;;;;;;;;;;;;;;22.32;57.76;100562.91;2173246;40;114576;-53
2021/08/08 16:52:49;;;;;;;;;;;;;;;22.31;58.01;100564.06;2173900;40;114867;-53
2021/08/08 16:54:21;;;;;;;;;;;;;;;22.31;57.88;100564.06;2174182;40;116261;-53
2021/08/08 16:55:53;;;;;;;;;;;;;;;22.29;58.01;100570.03;2173994;40;115464;-53
2021/08/08 16:57:25;;;;;;;;;;;;;;;22.29;57.81;100566.41;2175303;40;114647;-52
2021/08/08 16:58:56;;;;;;;;;;;;;;;22.29;57.93;100560.75;2173244;40;113862;-53
2021/08/08 17:00:28;;;;;;;;;;;;;;;22.27;57.96;100572.34;2173730;40;113639;-53
2021/08/08 17:02:01;;;;;;;;;;;;;;;22.27;58.12;100571.50;2173423;40;113814;-53
2021/08/08 17:03:33;;;;;;;;;;;;;;;22.27;58.13;100577.97;2173951;40;113838;-53
2021/08/08 17:05:06;;;;;;;;;;;;;;;22.28;58.05;100570.38;2173739;40;113775;-53
2021/08/08 17:06:37;;;;;;;;;;;;;;;22.27;58.11;100569.53;2173968;40;113633;-53
2021/08/08 17:08:09;;;;;;;;;;;;;;;22.28;58.08;100576.00;2178475;39;114212;-53
2021/08/08 17:09:41;;;;;;;;;;;;;;;22.26;57.81;100578.31;2175419;40;113720;-53
2021/08/08 17:11:13;;;;;;;;;;;;;;;22.25;58.02;100571.88;2177643;40;113966;-53
2021/08/08 17:12:47;;;;;;;;;;;;;;;22.26;57.87;100586.75;2168589;40;114527;-53
2021/08/08 17:14:24;;;;;;;;;;;;;;;22.25;57.95;100594.38;2178688;39;113964;-53
2021/08/08 17:15:58;;;;;;;;;;;;;;;22.25;57.75;100599.19;2175688;40;113989;-53
2021/08/08 17:17:33;;;;;;;;;;;;;;;22.25;57.77;100594.38;2169622;40;113818;-52
2021/08/08 17:19:08;;;;;;;;;;;;;;;22.24;57.69;100591.88;2170056;40;114243;-53
2021/08/08 17:20:40;;;;;;;;;;;;;;;22.20;57.97;100591.72;2184760;39;113985;-53
2021/08/08 17:22:12;;;;;;;;;;;;;;;22.25;57.57;100585.94;2174307;39;115138;-53
2021/08/08 17:23:44;;;;;;;;;;;;;;;22.26;57.54;100601.63;2180563;39;114334;-53
2021/08/08 17:25:17;;;;;;;;;;;;;;;22.26;57.73;100596.00;2173731;39;114397;-53
2021/08/08 17:26:49;;;;;;;;;;;;;;;22.25;57.89;100594.38;2167951;40;115085;-53
2021/08/08 17:28:22;;;;;;;;;;;;;;;22.23;57.99;100607.94;2179961;39;113813;-53
2021/08/08 17:29:54;;;;;;;;;;;;;;;22.24;57.99;100601.16;2176462;39;114858;-52
2021/08/08 17:31:26;;;;;;;;;;;;;;;22.22;58.17;100592.19;2182826;39;114728;-53
2021/08/08 17:32:57;;;;;;;;;;;;;;;22.22;57.86;100591.38;2176854;39;114880;-53
2021/08/08 17:34:29;;;;;;;;;;;;;;;22.20;58.06;100588.06;2173038;40;114735;-53
2021/08/08 17:36:01;;;;;;;;;;;;;;;22.22;58.02;100595.00;2172807;40;114605;-53
2021/08/08 17:37:33;;;;;;;;;;;;;;;22.21;57.94;100599.00;2173756;40;115101;-53
2021/08/08 17:39:04;;;;;;;;;;;;;;;22.21;58.07;100607.44;2170688;40;115090;-53
2021/08/08 17:40:36;;;;;;;;;;;;;;;22.21;57.99;100601.81;2173428;40;114623;-53
2021/08/08 17:42:08;;;;;;;;;;;;;;;22.19;58.24;100598.50;2176305;40;114130;-53
2021/08/08 17:43:41;;;;;;;;;;;;;;;22.21;58.15;100601.81;2172217;40;115545;-53
2021/08/08 17:45:16;;;;;;;;;;;;;;;22.23;58.25;100607.09;2169653;40;114550;-53
2021/08/08 17:46:47;;;;;;;;;;;;;;;22.22;58.44;100611.91;2173476;40;115543;-53
2021/08/08 17:48:19;;;;;;;;;;;;;;;22.22;58.08;100605.44;2172002;40;115476;-52
2021/08/08 17:49:52;;;;;;;;;;;;;;;22.24;58.37;100614.41;2179812;39;115481;-53
2021/08/08 17:51:25;;;;;;;;;;;;;;;22.21;58.21;100606.63;2175495;39;114498;-53
2021/08/08 17:52:57;;;;;;;;;;;;;;;22.20;58.22;100613.41;2169633;40;115494;-53
2021/08/08 17:54:31;;;;;;;;;;;;;;;22.17;58.35;100631.75;2182647;39;114738;-53
2021/08/08 17:56:05;;;;;;;;;;;;;;;22.18;58.29;100627.78;2171533;40;114721;-53
2021/08/08 17:57:37;;;;;;;;;;;;;;;22.16;58.36;100635.75;2170051;40;115501;-53
2021/08/08 17:59:09;;;;;;;;;;;;;;;22.17;58.42;100629.78;2169032;40;115545;-53
2021/08/08 18:00:42;;;;;;;;;;;;;;;22.18;58.35;100628.63;2168560;40;115549;-53
2021/08/08 18:02:14;;;;;;;;;;;;;;;22.18;58.21;100624.97;2167933;40;114679;-53
2021/08/08 18:03:46;;;;;;;;;;;;;;;22.21;58.22;100634.75;2184472;39;114583;-53
2021/08/08 18:05:18;;;;;;;;;;;;;;;22.16;58.36;100632.94;2172693;40;113739;-53
2021/08/08 18:06:50;;;;;;;;;;;;;;;22.17;58.59;100640.19;2181263;39;114210;-53
2021/08/08 18:08:23;;;;;;;;;;;;;;;22.18;58.40;100634.25;2172520;39;113819;-53
2021/08/08 18:09:56;;;;;;;;;;;;;;;22.16;58.53;100638.56;2170371;40;113812;-53
2021/08/08 18:11:29;;;;;;;;;;;;;;;22.14;58.35;100652.94;2181214;39;113763;-52
2021/08/08 18:13:03;;;;;;;;;;;;;;;22.13;58.51;100644.81;2172886;39;114334;-53
2021/08/08 18:14:37;;;;;;;;;;;;;;;22.10;58.54;100649.13;2169031;40;114063;-53
2021/08/08 18:16:10;;;;;;;;;;;;;;;22.10;58.83;100651.94;2169788;40;113707;-53
2021/08/08 18:17:43;;;;;;;;;;;;;;;22.13;58.65;100647.63;2169613;40;114134;-53
2021/08/08 18:19:15;;;;;;;;;;;;;;;22.10;58.53;100651.09;2169955;40;114194;-53
2021/08/08 18:20:47;;;;;;;;;;;;;;;22.08;58.72;100662.69;2169068;40;113872;-53
2021/08/08 18:22:19;;;;;;;;;;;;;;;22.07;59.00;100655.41;2181570;39;114140;-53
2021/08/08 18:23:50;;;;;;;;;;;;;;;22.07;58.81;100655.41;2173473;39;114149;-52
2021/08/08 18:25:22;;;;;;;;;;;;;;;22.09;58.76;100660.69;2183529;39;113739;-53
2021/08/08 18:26:54;;;;;;;;;;;;;;;22.07;58.73;100660.22;2173007;40;115200;-53
2021/08/08 18:28:28;;;;;;;;;;;;;;;22.06;58.74;100664.19;2170686;40;114999;-53
2021/08/08 18:30:00;;;;;;;;;;;;;;;22.04;58.81;100666.47;2170695;40;114868;-53
2021/08/08 18:31:33;;;;;;;;;;;;;;;22.03;58.90;100668.44;2176317;40;114697;-53
2021/08/08 18:33:06;;;;;;;;;;;;;;;22.04;58.85;100672.94;2173058;40;113975;-53
2021/08/08 18:34:38;;;;;;;;;;;;;;;22.03;58.60;100673.28;2168971;40;114987;-53
2021/08/08 18:36:12;;;;;;;;;;;;;;;22.03;58.78;100674.09;2168377;40;114305;-53
2021/08/08 18:37:49;;;;;;;;;;;;;;;22.02;58.77;100680.88;2180401;39;114712;-53
2021/08/08 18:39:20;;;;;;;;;;;;;;;22.03;58.81;100681.72;2173399;39;113791;-53
2021/08/08 18:41:03;;;;;;;;;;;;;;;22.03;58.91;100681.72;2170062;40;114281;-53
2021/08/08 18:42:50;;;;;;;;;;;;;;;22.03;58.59;100685.34;2182519;39;114016;-52
2021/08/08 18:44:23;;;;;;;;;;;;;;;22.02;58.58;100689.31;2171480;39;114007;-52
2021/08/08 18:45:56;;;;;;;;;;;;;;;22.01;58.55;100686.81;2169375;40;114292;-53
2021/08/08 18:47:28;;;;;;;;;;;;;;;21.99;58.67;100689.94;2171423;40;114106;-53
2021/08/08 18:49:23;;;;;;;;;;;;;;;21.99;58.69;100687.13;2168951;40;115026;-53
2021/08/08 18:50:57;;;;;;;;;;;;;;;21.99;58.62;100692.78;2178179;40;113892;-52
2021/08/08 18:52:29;;;;;;;;;;;;;;;21.99;58.60;100697.56;2170650;40;114921;-52
2021/08/08 18:54:01;;;;;;;;;;;;;;;21.98;58.75;100690.31;2168230;40;116263;-53
2021/08/08 18:55:34;;;;;;;;;;;;;;;21.98;58.81;100699.56;2182118;39;115643;-53
2021/08/08 18:57:07;;;;;;;;;;;;;;;22.00;58.79;100704.84;2173669;39;114787;-53
2021/08/08 18:58:40;;;;;;;;;;;;;;;21.99;58.78;100708.81;2170168;40;114588;-53
2021/08/08 19:00:12;;;;;;;;;;;;;;;21.98;58.73;100701.56;2169324;40;115542;-54
2021/08/08 19:01:44;;;;;;;;;;;;;;;21.99;58.77;100706.00;2168555;40;115442;-53
2021/08/08 19:03:17;;;;;;;;;;;;;;;21.97;58.88;100705.50;2168001;40;115672;-53
2021/08/08 19:04:49;;;;;;;;;;;;;;;21.96;58.91;100698.22;2174837;40;114560;-53
2021/08/08 19:06:21;;;;;;;;;;;;;;;21.96;58.84;100709.47;2181812;39;116566;-53
2021/08/08 19:07:52;;;;;;;;;;;;;;;21.95;58.98;100705.81;2175338;39;114676;-53
2021/08/08 19:09:24;;;;;;;;;;;;;;;21.96;59.19;100709.47;2169790;40;116033;-53
2021/08/08 19:10:56;;;;;;;;;;;;;;;21.96;59.29;100715.09;2171917;40;114528;-52
2021/08/08 19:12:28;;;;;;;;;;;;;;;21.95;59.14;100714.28;2169013;40;113944;-53
2021/08/08 19:14:01;;;;;;;;;;;;;;;21.94;59.18;100714.59;2180248;39;113999;-52
2021/08/08 19:15:37;;;;;;;;;;;;;;;21.95;59.17;100719.06;2170389;40;113863;-53
2021/08/08 19:17:11;;;;;;;;;;;;;;;21.93;59.32;100722.22;2168504;40;113917;-53
2021/08/08 19:18:44;;;;;;;;;;;;;;;21.93;59.14;100718.56;2168554;40;113840;-55
2021/08/08 19:20:19;;;;;;;;;;;;;;;21.93;59.28;100725.03;2168731;40;113796;-53
2021/08/08 19:21:52;;;;;;;;;;;;;;;21.92;59.19;100723.34;2175093;40;113790;-53
2021/08/08 19:23:25;;;;;;;;;;;;;;;21.91;59.18;100735.72;2171147;40;114078;-53
2021/08/08 19:24:58;;;;;;;;;;;;;;;21.92;59.28;100736.56;2170501;40;114091;-53
2021/08/08 19:26:29;;;;;;;;;;;;;;;21.91;59.26;100737.72;2169552;40;113827;-53
2021/08/08 19:28:03;;;;;;;;;;;;;;;21.92;59.31;100736.56;2172040;40;114908;-53
2021/08/08 19:29:35;;;;;;;;;;;;;;;21.91;59.38;100740.53;2170671;40;113973;-53
2021/08/08 19:31:11;;;;;;;;;;;;;;;21.90;59.55;100741.66;2168377;40;113833;-52
2021/08/08 19:32:43;;;;;;;;;;;;;;;21.89;59.40;100751.28;2182878;39;114111;-53
2021/08/08 19:34:15;;;;;;;;;;;;;;;21.90;59.32;100750.09;2170584;40;114723;-53
2021/08/08 19:35:48;;;;;;;;;;;;;;;21.89;59.40;100748.47;2168562;40;114898;-53
2021/08/08 19:37:19;;;;;;;;;;;;;;;21.88;59.23;100752.44;2168312;40;115330;-52
2021/08/08 19:38:53;;;;;;;;;;;;;;;21.88;59.38;100758.06;2171073;40;114925;-53
2021/08/08 19:40:34;;;;;;;;;;;;;;;21.91;59.31;100757.41;2170063;40;114902;-53
2021/08/08 19:42:11;;;;;;;;;;;;;;;21.89;59.29;100760.56;2175872;40;114795;-53
2021/08/08 19:43:43;;;;;;;;;;;;;;;21.89;59.34;100759.72;2170333;40;113920;-53
2021/08/08 19:45:15;;;;;;;;;;;;;;;21.89;59.51;100768.16;2173995;39;115004;-52
2021/08/08 19:46:51;;;;;;;;;;;;;;;21.89;59.49;100763.38;2171262;40;114084;-53
2021/08/08 19:48:23;;;;;;;;;;;;;;;21.89;59.50;100776.59;2169686;40;114799;-53
2021/08/08 19:49:55;;;;;;;;;;;;;;;21.89;59.56;100776.59;2169293;40;114638;-53
2021/08/08 19:51:28;;;;;;;;;;;;;;;21.89;59.44;100773.78;2168890;40;114927;-53
2021/08/08 19:53:01;;;;;;;;;;;;;;;21.90;59.46;100775.41;2168545;40;115021;-53
2021/08/08 19:54:36;;;;;;;;;;;;;;;21.91;59.36;100782.72;2171836;40;114204;-53
2021/08/08 19:56:09;;;;;;;;;;;;;;;21.91;59.47;100777.09;2169516;40;115752;-53
2021/08/08 19:57:43;;;;;;;;;;;;;;;21.88;59.49;100781.41;2169272;40;114589;-53
2021/08/08 19:59:18;;;;;;;;;;;;;;;21.87;59.65;100782.53;2169678;40;115750;-53
2021/08/08 20:00:51;;;;;;;;;;;;;;;21.86;59.82;100783.69;2175194;40;115580;-53
2021/08/08 20:02:25;;;;;;;;;;;;;;;21.87;59.88;100784.50;2173142;40;114611;-53
2021/08/08 20:03:58;;;;;;;;;;;;;;;21.88;59.88;100800.25;2169415;40;114667;-53
2021/08/08 20:05:32;;;;;;;;;;;;;;;21.87;59.83;100793.78;2168985;40;114702;-53
2021/08/08 20:07:11;;;;;;;;;;;;;;;21.87;59.82;100799.41;2175391;40;114745;-53
2021/08/08 20:08:45;;;;;;;;;;;;;;;21.86;59.83;100800.56;2171047;40;114738;-53
2021/08/08 20:10:17;;;;;;;;;;;;;;;21.86;59.95;100802.53;2169720;40;115802;-53
2021/08/08 20:11:52;;;;;;;;;;;;;;;21.86;59.81;100802.53;2170051;40;114840;-54
2021/08/08 20:13:26;;;;;;;;;;;;;;;21.87;59.84;100804.22;2170222;40;114808;-52
2021/08/08 20:14:59;;;;;;;;;;;;;;;21.85;59.65;100804.50;2173486;40;114582;-53
2021/08/08 20:16:33;;;;;;;;;;;;;;;21.85;59.79;100804.50;2176119;40;114737;-53
2021/08/08 20:18:08;;;;;;;;;;;;;;;21.85;59.73;100818.56;2169525;39;113923;-53
2021/08/08 20:19:42;;;;;;;;;;;;;;;21.86;59.74;100810.97;2169955;40;113719;-52
2021/08/08 20:21:15;;;;;;;;;;;;;;;21.85;59.84;100812.97;2169116;40;113782;-53
2021/08/08 20:22:49;;;;;;;;;;;;;;;21.88;59.90;100814.31;2169630;40;113907;-53
2021/08/08 20:24:25;;;;;;;;;;;;;;;21.91;59.76;100816.47;2170933;40;114723;-53
2021/08/08 20:25:56;;;;;;;;;;;;;;;21.89;59.62;100821.59;2174086;40;113932;-53
2021/08/08 20:27:33;;;;;;;;;;;;;;;21.87;60.00;100821.09;2179361;40;113875;-52
2021/08/08 20:29:05;;;;;;;;;;;;;;;21.87;59.67;100819.09;2174718;40;113942;-53
2021/08/08 20:30:36;;;;;;;;;;;;;;;21.85;59.79;100821.41;2172646;40;113893;-53
2021/08/08 20:32:09;;;;;;;;;;;;;;;21.87;59.59;100823.91;2174107;40;113895;-53
2021/08/08 20:33:40;;;;;;;;;;;;;;;21.86;59.84;100820.25;2175663;39;114557;-53
2021/08/08 20:35:14;;;;;;;;;;;;;;;21.85;59.60;100829.03;2171968;40;113725;-53
2021/08/08 20:36:50;;;;;;;;;;;;;;;21.84;59.59;100827.34;2171598;40;114019;-53
2021/08/08 20:39:01;;;;;;;;;;;;;;;21.82;59.88;100826.84;2169292;40;113655;-53
2021/08/08 20:41:15;;;;;;;;;;;;;;;21.80;59.83;100820.72;2175565;40;113884;-53
2021/08/08 20:42:51;;;;;;;;;;;;;;;21.81;59.51;100830.78;2174473;40;114788;-53
2021/08/08 20:44:31;;;;;;;;;;;;;;;21.80;59.64;100834.78;2173866;40;114145;-53
2021/08/08 20:46:10;;;;;;;;;;;;;;;21.81;59.54;100839.22;2174126;40;114529;-52